sensor_id;sensor_type;location;lat;lon;timestamp;P1;durP1;ratioP1;P2;durP2;ratioP2
3333;SDS011;1679;50.392;8.008;2023-05-23T00:01:34;33.03;;;28.43;;
3333;SDS011;1679;50.392;8.008;2023-05-23T00:04:03;34.73;;;30.40;;
3333;SDS011;1679;50.392;8.008;2023-05-23T00:06:29;30.00;;;26.77;;
3333;SDS011;1679;50.392;8.008;2023-05-23T00:08:55;33.27;;;28.80;;
3333;SDS011;1679;50.392;8.008;2023-05-23T00:11:20;31.77;;;27.07;;
3333;SDS011;1679;50.392;8.008;2023-05-23T00:13:50;33.63;;;28.50;;
3333;SDS011;1679;50.392;8.008;2023-05-23T00:16:17;31.87;;;28.47;;
3333;SDS011;1679;50.392;8.008;2023-05-23T00:18:43;35.90;;;28.70;;
3333;SDS011;1679;50.392;8.008;2023-05-23T00:21:09;29.53;;;26.27;;
3333;SDS011;1679;50.392;8.008;2023-05-23T00:23:37;32.20;;;27.43;;
3333;SDS011;1679;50.392;8.008;2023-05-23T00:26:06;29.97;;;26.60;;
3333;SDS011;1679;50.392;8.008;2023-05-23T00:28:32;28.87;;;24.40;;
3333;SDS011;1679;50.392;8.008;2023-05-23T00:30:57;30.03;;;25.30;;
3333;SDS011;1679;50.392;8.008;2023-05-23T00:33:23;32.83;;;26.90;;
3333;SDS011;1679;50.392;8.008;2023-05-23T00:35:48;27.20;;;24.07;;
3333;SDS011;1679;50.392;8.008;2023-05-23T00:38:14;27.97;;;24.93;;
3333;SDS011;1679;50.392;8.008;2023-05-23T00:40:40;26.07;;;23.30;;
3333;SDS011;1679;50.392;8.008;2023-05-23T00:43:06;27.17;;;24.17;;
3333;SDS011;1679;50.392;8.008;2023-05-23T00:45:34;27.47;;;23.50;;
3333;SDS011;1679;50.392;8.008;2023-05-23T00:48:00;31.40;;;24.20;;
3333;SDS011;1679;50.392;8.008;2023-05-23T00:50:28;28.40;;;24.17;;
3333;SDS011;1679;50.392;8.008;2023-05-23T00:52:54;25.40;;;22.67;;
3333;SDS011;1679;50.392;8.008;2023-05-23T00:55:21;25.87;;;22.43;;
3333;SDS011;1679;50.392;8.008;2023-05-23T00:57:48;24.10;;;21.53;;
3333;SDS011;1679;50.392;8.008;2023-05-23T01:00:13;24.77;;;22.07;;
3333;SDS011;1679;50.392;8.008;2023-05-23T01:02:43;28.60;;;22.97;;
3333;SDS011;1679;50.392;8.008;2023-05-23T01:05:11;31.40;;;23.30;;
3333;SDS011;1679;50.392;8.008;2023-05-23T01:07:41;25.80;;;21.80;;
3333;SDS011;1679;50.392;8.008;2023-05-23T01:10:11;24.40;;;21.17;;
3333;SDS011;1679;50.392;8.008;2023-05-23T01:15:28;28.17;;;22.97;;
3333;SDS011;1679;50.392;8.008;2023-05-23T01:18:06;25.03;;;21.90;;
3333;SDS011;1679;50.392;8.008;2023-05-23T01:26:02;25.70;;;22.23;;
3333;SDS011;1679;50.392;8.008;2023-05-23T01:28:44;24.47;;;21.13;;
3333;SDS011;1679;50.392;8.008;2023-05-23T01:31:12;26.07;;;22.70;;
3333;SDS011;1679;50.392;8.008;2023-05-23T01:33:40;24.97;;;21.23;;
3333;SDS011;1679;50.392;8.008;2023-05-23T01:36:06;23.60;;;20.93;;
3333;SDS011;1679;50.392;8.008;2023-05-23T01:38:33;23.10;;;20.20;;
3333;SDS011;1679;50.392;8.008;2023-05-23T01:40:58;25.27;;;20.87;;
3333;SDS011;1679;50.392;8.008;2023-05-23T01:43:24;23.73;;;20.33;;
3333;SDS011;1679;50.392;8.008;2023-05-23T01:45:50;22.97;;;20.40;;
3333;SDS011;1679;50.392;8.008;2023-05-23T01:48:17;24.73;;;20.13;;
3333;SDS011;1679;50.392;8.008;2023-05-23T01:50:45;22.47;;;19.63;;
3333;SDS011;1679;50.392;8.008;2023-05-23T01:53:11;26.20;;;20.27;;
3333;SDS011;1679;50.392;8.008;2023-05-23T01:55:40;23.30;;;20.10;;
3333;SDS011;1679;50.392;8.008;2023-05-23T01:58:06;25.10;;;20.83;;
3333;SDS011;1679;50.392;8.008;2023-05-23T02:00:32;24.10;;;20.57;;
3333;SDS011;1679;50.392;8.008;2023-05-23T02:02:57;26.93;;;21.80;;
3333;SDS011;1679;50.392;8.008;2023-05-23T02:05:23;23.53;;;21.03;;
3333;SDS011;1679;50.392;8.008;2023-05-23T02:07:49;26.47;;;21.80;;
3333;SDS011;1679;50.392;8.008;2023-05-23T02:10:14;30.70;;;23.50;;
3333;SDS011;1679;50.392;8.008;2023-05-23T02:12:40;27.97;;;23.33;;
3333;SDS011;1679;50.392;8.008;2023-05-23T02:15:05;28.83;;;23.60;;
3333;SDS011;1679;50.392;8.008;2023-05-23T02:17:32;28.27;;;22.87;;
3333;SDS011;1679;50.392;8.008;2023-05-23T02:19:57;28.73;;;23.23;;
3333;SDS011;1679;50.392;8.008;2023-05-23T02:22:23;28.20;;;23.10;;
3333;SDS011;1679;50.392;8.008;2023-05-23T02:24:52;32.00;;;24.57;;
3333;SDS011;1679;50.392;8.008;2023-05-23T02:27:17;32.80;;;26.00;;
3333;SDS011;1679;50.392;8.008;2023-05-23T02:29:43;33.70;;;26.87;;
3333;SDS011;1679;50.392;8.008;2023-05-23T02:32:09;32.93;;;26.83;;
3333;SDS011;1679;50.392;8.008;2023-05-23T02:34:34;32.23;;;25.60;;
3333;SDS011;1679;50.392;8.008;2023-05-23T02:37:00;39.80;;;28.40;;
3333;SDS011;1679;50.392;8.008;2023-05-23T02:39:26;37.70;;;27.77;;
3333;SDS011;1679;50.392;8.008;2023-05-23T02:41:51;37.83;;;28.93;;
3333;SDS011;1679;50.392;8.008;2023-05-23T02:44:17;34.93;;;27.87;;
3333;SDS011;1679;50.392;8.008;2023-05-23T02:46:44;42.80;;;29.13;;
3333;SDS011;1679;50.392;8.008;2023-05-23T02:49:09;40.00;;;30.60;;
3333;SDS011;1679;50.392;8.008;2023-05-23T02:51:35;38.77;;;29.73;;
3333;SDS011;1679;50.392;8.008;2023-05-23T02:54:01;41.00;;;31.20;;
3333;SDS011;1679;50.392;8.008;2023-05-23T02:56:26;34.77;;;27.83;;
3333;SDS011;1679;50.392;8.008;2023-05-23T02:58:52;34.33;;;27.30;;
3333;SDS011;1679;50.392;8.008;2023-05-23T03:01:17;27.93;;;24.30;;
3333;SDS011;1679;50.392;8.008;2023-05-23T03:03:43;28.40;;;22.37;;
3333;SDS011;1679;50.392;8.008;2023-05-23T03:06:09;23.97;;;21.37;;
3333;SDS011;1679;50.392;8.008;2023-05-23T03:08:39;24.60;;;21.67;;
3333;SDS011;1679;50.392;8.008;2023-05-23T03:11:05;26.10;;;20.30;;
3333;SDS011;1679;50.392;8.008;2023-05-23T03:13:30;23.27;;;20.77;;
3333;SDS011;1679;50.392;8.008;2023-05-23T03:15:56;22.50;;;20.07;;
3333;SDS011;1679;50.392;8.008;2023-05-23T03:18:22;23.90;;;21.40;;
3333;SDS011;1679;50.392;8.008;2023-05-23T03:20:47;24.43;;;20.00;;
3333;SDS011;1679;50.392;8.008;2023-05-23T03:23:13;20.77;;;18.57;;
3333;SDS011;1679;50.392;8.008;2023-05-23T03:25:38;20.30;;;17.13;;
3333;SDS011;1679;50.392;8.008;2023-05-23T03:28:03;21.17;;;18.57;;
3333;SDS011;1679;50.392;8.008;2023-05-23T03:30:29;21.10;;;18.80;;
3333;SDS011;1679;50.392;8.008;2023-05-23T03:32:55;20.40;;;18.13;;
3333;SDS011;1679;50.392;8.008;2023-05-23T03:35:20;23.50;;;18.73;;
3333;SDS011;1679;50.392;8.008;2023-05-23T03:37:46;21.53;;;19.23;;
3333;SDS011;1679;50.392;8.008;2023-05-23T03:40:11;20.87;;;18.30;;
3333;SDS011;1679;50.392;8.008;2023-05-23T03:42:37;21.07;;;18.87;;
3333;SDS011;1679;50.392;8.008;2023-05-23T03:45:03;22.43;;;19.97;;
3333;SDS011;1679;50.392;8.008;2023-05-23T03:47:30;22.73;;;20.30;;
3333;SDS011;1679;50.392;8.008;2023-05-23T03:49:55;21.13;;;18.90;;
3333;SDS011;1679;50.392;8.008;2023-05-23T03:52:21;22.33;;;19.43;;
3333;SDS011;1679;50.392;8.008;2023-05-23T03:54:47;23.00;;;20.60;;
3333;SDS011;1679;50.392;8.008;2023-05-23T03:57:12;22.73;;;20.40;;
3333;SDS011;1679;50.392;8.008;2023-05-23T03:59:38;22.10;;;19.70;;
3333;SDS011;1679;50.392;8.008;2023-05-23T04:02:03;23.63;;;21.10;;
3333;SDS011;1679;50.392;8.008;2023-05-23T04:04:29;23.27;;;20.80;;
3333;SDS011;1679;50.392;8.008;2023-05-23T04:06:56;25.80;;;23.00;;
3333;SDS011;1679;50.392;8.008;2023-05-23T04:09:22;25.47;;;22.37;;
3333;SDS011;1679;50.392;8.008;2023-05-23T04:11:47;23.27;;;20.77;;
3333;SDS011;1679;50.392;8.008;2023-05-23T04:14:13;22.47;;;19.43;;
3333;SDS011;1679;50.392;8.008;2023-05-23T04:16:42;23.70;;;21.20;;
3333;SDS011;1679;50.392;8.008;2023-05-23T04:19:08;23.40;;;20.77;;
3333;SDS011;1679;50.392;8.008;2023-05-23T04:21:34;24.00;;;21.40;;
3333;SDS011;1679;50.392;8.008;2023-05-23T04:24:00;20.07;;;17.97;;
3333;SDS011;1679;50.392;8.008;2023-05-23T04:26:26;22.90;;;19.63;;
3333;SDS011;1679;50.392;8.008;2023-05-23T04:28:51;19.77;;;17.77;;
3333;SDS011;1679;50.392;8.008;2023-05-23T04:31:18;20.50;;;18.40;;
3333;SDS011;1679;50.392;8.008;2023-05-23T04:33:47;20.73;;;18.50;;
3333;SDS011;1679;50.392;8.008;2023-05-23T04:36:13;20.40;;;18.20;;
3333;SDS011;1679;50.392;8.008;2023-05-23T04:38:39;19.73;;;17.60;;
3333;SDS011;1679;50.392;8.008;2023-05-23T04:41:05;21.13;;;19.03;;
3333;SDS011;1679;50.392;8.008;2023-05-23T04:43:37;17.97;;;16.27;;
3333;SDS011;1679;50.392;8.008;2023-05-23T04:46:07;20.90;;;17.53;;
3333;SDS011;1679;50.392;8.008;2023-05-23T04:48:33;25.60;;;19.70;;
3333;SDS011;1679;50.392;8.008;2023-05-23T04:51:00;21.67;;;19.07;;
3333;SDS011;1679;50.392;8.008;2023-05-23T04:53:26;23.07;;;20.40;;
3333;SDS011;1679;50.392;8.008;2023-05-23T04:55:51;20.83;;;18.73;;
3333;SDS011;1679;50.392;8.008;2023-05-23T04:58:17;21.10;;;18.97;;
3333;SDS011;1679;50.392;8.008;2023-05-23T05:00:42;23.63;;;20.30;;
3333;SDS011;1679;50.392;8.008;2023-05-23T05:03:08;22.80;;;19.20;;
3333;SDS011;1679;50.392;8.008;2023-05-23T05:05:34;21.97;;;19.27;;
3333;SDS011;1679;50.392;8.008;2023-05-23T05:07:59;21.73;;;19.07;;
3333;SDS011;1679;50.392;8.008;2023-05-23T05:10:25;22.23;;;19.67;;
3333;SDS011;1679;50.392;8.008;2023-05-23T05:12:50;20.67;;;18.47;;
3333;SDS011;1679;50.392;8.008;2023-05-23T05:15:16;24.80;;;18.00;;
3333;SDS011;1679;50.392;8.008;2023-05-23T05:17:43;20.23;;;18.10;;
3333;SDS011;1679;50.392;8.008;2023-05-23T05:20:09;19.20;;;17.20;;
3333;SDS011;1679;50.392;8.008;2023-05-23T05:22:38;19.63;;;17.63;;
3333;SDS011;1679;50.392;8.008;2023-05-23T05:25:04;17.60;;;16.00;;
3333;SDS011;1679;50.392;8.008;2023-05-23T05:27:31;17.80;;;15.90;;
3333;SDS011;1679;50.392;8.008;2023-05-23T05:29:57;17.77;;;15.80;;
3333;SDS011;1679;50.392;8.008;2023-05-23T05:32:28;17.97;;;16.10;;
3333;SDS011;1679;50.392;8.008;2023-05-23T05:34:55;18.37;;;16.57;;
3333;SDS011;1679;50.392;8.008;2023-05-23T05:37:20;17.30;;;15.50;;
3333;SDS011;1679;50.392;8.008;2023-05-23T05:39:46;16.97;;;15.20;;
3333;SDS011;1679;50.392;8.008;2023-05-23T05:42:11;17.60;;;15.70;;
3333;SDS011;1679;50.392;8.008;2023-05-23T05:44:37;17.17;;;15.57;;
3333;SDS011;1679;50.392;8.008;2023-05-23T05:47:02;15.67;;;14.33;;
3333;SDS011;1679;50.392;8.008;2023-05-23T05:49:28;16.60;;;15.00;;
3333;SDS011;1679;50.392;8.008;2023-05-23T05:51:54;16.60;;;15.10;;
3333;SDS011;1679;50.392;8.008;2023-05-23T05:54:19;15.63;;;14.20;;
3333;SDS011;1679;50.392;8.008;2023-05-23T05:56:45;15.83;;;14.33;;
3333;SDS011;1679;50.392;8.008;2023-05-23T05:59:11;16.43;;;14.87;;
3333;SDS011;1679;50.392;8.008;2023-05-23T06:01:37;15.63;;;14.23;;
3333;SDS011;1679;50.392;8.008;2023-05-23T06:04:02;15.70;;;14.27;;
3333;SDS011;1679;50.392;8.008;2023-05-23T06:06:28;15.37;;;13.97;;
3333;SDS011;1679;50.392;8.008;2023-05-23T06:08:53;14.30;;;12.90;;
3333;SDS011;1679;50.392;8.008;2023-05-23T06:11:19;13.60;;;12.20;;
3333;SDS011;1679;50.392;8.008;2023-05-23T06:13:44;14.57;;;13.27;;
3333;SDS011;1679;50.392;8.008;2023-05-23T06:16:10;14.33;;;12.87;;
3333;SDS011;1679;50.392;8.008;2023-05-23T06:18:36;18.47;;;12.90;;
3333;SDS011;1679;50.392;8.008;2023-05-23T06:21:01;14.23;;;12.93;;
3333;SDS011;1679;50.392;8.008;2023-05-23T06:23:27;13.10;;;11.90;;
3333;SDS011;1679;50.392;8.008;2023-05-23T06:25:52;12.93;;;11.83;;
3333;SDS011;1679;50.392;8.008;2023-05-23T06:28:18;13.80;;;12.50;;
3333;SDS011;1679;50.392;8.008;2023-05-23T06:30:43;11.30;;;10.40;;
3333;SDS011;1679;50.392;8.008;2023-05-23T06:33:09;11.33;;;10.33;;
3333;SDS011;1679;50.392;8.008;2023-05-23T06:35:35;10.87;;;9.97;;
3333;SDS011;1679;50.392;8.008;2023-05-23T06:38:01;10.90;;;9.80;;
3333;SDS011;1679;50.392;8.008;2023-05-23T06:40:27;11.63;;;10.43;;
3333;SDS011;1679;50.392;8.008;2023-05-23T06:42:52;10.90;;;9.80;;
3333;SDS011;1679;50.392;8.008;2023-05-23T06:45:18;11.93;;;10.93;;
3333;SDS011;1679;50.392;8.008;2023-05-23T06:47:43;11.23;;;10.23;;
3333;SDS011;1679;50.392;8.008;2023-05-23T06:50:09;11.10;;;10.10;;
3333;SDS011;1679;50.392;8.008;2023-05-23T06:52:35;13.40;;;12.20;;
3333;SDS011;1679;50.392;8.008;2023-05-23T06:55:02;12.47;;;11.30;;
3333;SDS011;1679;50.392;8.008;2023-05-23T06:57:27;12.13;;;11.03;;
3333;SDS011;1679;50.392;8.008;2023-05-23T06:59:53;14.70;;;12.47;;
3333;SDS011;1679;50.392;8.008;2023-05-23T07:02:18;14.03;;;12.53;;
3333;SDS011;1679;50.392;8.008;2023-05-23T07:04:44;14.10;;;12.80;;
3333;SDS011;1679;50.392;8.008;2023-05-23T07:07:10;14.27;;;12.80;;
3333;SDS011;1679;50.392;8.008;2023-05-23T07:09:36;14.63;;;13.20;;
3333;SDS011;1679;50.392;8.008;2023-05-23T07:12:02;13.63;;;12.33;;
3333;SDS011;1679;50.392;8.008;2023-05-23T07:14:28;14.10;;;12.80;;
3333;SDS011;1679;50.392;8.008;2023-05-23T07:16:53;13.17;;;11.97;;
3333;SDS011;1679;50.392;8.008;2023-05-23T07:19:19;13.43;;;12.23;;
3333;SDS011;1679;50.392;8.008;2023-05-23T07:21:44;14.83;;;13.40;;
3333;SDS011;1679;50.392;8.008;2023-05-23T07:24:10;13.00;;;11.73;;
3333;SDS011;1679;50.392;8.008;2023-05-23T07:26:35;14.00;;;12.70;;
3333;SDS011;1679;50.392;8.008;2023-05-23T07:29:01;14.13;;;13.03;;
3333;SDS011;1679;50.392;8.008;2023-05-23T07:31:26;13.47;;;12.30;;
3333;SDS011;1679;50.392;8.008;2023-05-23T07:33:52;13.47;;;12.13;;
3333;SDS011;1679;50.392;8.008;2023-05-23T07:36:18;12.90;;;11.80;;
3333;SDS011;1679;50.392;8.008;2023-05-23T07:38:44;13.50;;;12.17;;
3333;SDS011;1679;50.392;8.008;2023-05-23T07:41:09;13.13;;;11.93;;
3333;SDS011;1679;50.392;8.008;2023-05-23T07:43:35;12.70;;;11.40;;
3333;SDS011;1679;50.392;8.008;2023-05-23T07:46:00;13.27;;;11.93;;
3333;SDS011;1679;50.392;8.008;2023-05-23T07:48:26;12.17;;;11.17;;
3333;SDS011;1679;50.392;8.008;2023-05-23T07:50:51;11.90;;;10.90;;
3333;SDS011;1679;50.392;8.008;2023-05-23T07:53:19;12.00;;;11.00;;
3333;SDS011;1679;50.392;8.008;2023-05-23T07:55:46;11.40;;;10.33;;
3333;SDS011;1679;50.392;8.008;2023-05-23T07:58:12;9.93;;;9.07;;
3333;SDS011;1679;50.392;8.008;2023-05-23T08:00:37;10.23;;;9.43;;
3333;SDS011;1679;50.392;8.008;2023-05-23T08:03:05;10.60;;;9.60;;
3333;SDS011;1679;50.392;8.008;2023-05-23T08:05:31;11.70;;;10.57;;
3333;SDS011;1679;50.392;8.008;2023-05-23T08:07:56;12.50;;;11.40;;
3333;SDS011;1679;50.392;8.008;2023-05-23T08:10:22;12.63;;;11.43;;
3333;SDS011;1679;50.392;8.008;2023-05-23T08:12:47;13.20;;;12.03;;
3333;SDS011;1679;50.392;8.008;2023-05-23T08:15:13;14.13;;;12.83;;
3333;SDS011;1679;50.392;8.008;2023-05-23T08:17:38;13.57;;;12.37;;
3333;SDS011;1679;50.392;8.008;2023-05-23T08:20:04;14.50;;;13.07;;
3333;SDS011;1679;50.392;8.008;2023-05-23T08:22:31;15.13;;;13.53;;
3333;SDS011;1679;50.392;8.008;2023-05-23T08:24:56;16.20;;;12.93;;
3333;SDS011;1679;50.392;8.008;2023-05-23T08:27:22;14.73;;;13.40;;
3333;SDS011;1679;50.392;8.008;2023-05-23T08:29:47;15.63;;;14.23;;
3333;SDS011;1679;50.392;8.008;2023-05-23T08:32:13;16.10;;;14.60;;
3333;SDS011;1679;50.392;8.008;2023-05-23T08:34:39;16.80;;;15.10;;
3333;SDS011;1679;50.392;8.008;2023-05-23T08:37:05;16.30;;;14.60;;
3333;SDS011;1679;50.392;8.008;2023-05-23T08:39:31;15.83;;;14.40;;
3333;SDS011;1679;50.392;8.008;2023-05-23T08:41:56;15.93;;;14.53;;
3333;SDS011;1679;50.392;8.008;2023-05-23T08:44:22;16.13;;;14.53;;
3333;SDS011;1679;50.392;8.008;2023-05-23T08:46:47;17.80;;;16.00;;
3333;SDS011;1679;50.392;8.008;2023-05-23T08:49:17;17.30;;;15.67;;
3333;SDS011;1679;50.392;8.008;2023-05-23T08:51:43;17.07;;;15.40;;
3333;SDS011;1679;50.392;8.008;2023-05-23T08:54:09;24.00;;;17.77;;
3333;SDS011;1679;50.392;8.008;2023-05-23T08:56:37;19.30;;;17.30;;
3333;SDS011;1679;50.392;8.008;2023-05-23T08:59:03;19.80;;;17.80;;
3333;SDS011;1679;50.392;8.008;2023-05-23T09:01:29;20.07;;;18.07;;
3333;SDS011;1679;50.392;8.008;2023-05-23T09:03:57;18.57;;;16.90;;
3333;SDS011;1679;50.392;8.008;2023-05-23T09:06:28;20.33;;;16.90;;
3333;SDS011;1679;50.392;8.008;2023-05-23T09:08:54;18.30;;;16.40;;
3333;SDS011;1679;50.392;8.008;2023-05-23T09:11:21;18.83;;;16.80;;
3333;SDS011;1679;50.392;8.008;2023-05-23T09:13:46;19.27;;;17.47;;
3333;SDS011;1679;50.392;8.008;2023-05-23T09:16:14;19.60;;;16.47;;
3333;SDS011;1679;50.392;8.008;2023-05-23T09:18:42;16.63;;;15.10;;
3333;SDS011;1679;50.392;8.008;2023-05-23T09:21:09;19.50;;;16.20;;
3333;SDS011;1679;50.392;8.008;2023-05-23T09:23:36;19.50;;;17.47;;
3333;SDS011;1679;50.392;8.008;2023-05-23T09:26:04;17.77;;;15.93;;
3333;SDS011;1679;50.392;8.008;2023-05-23T09:28:33;20.30;;;16.13;;
3333;SDS011;1679;50.392;8.008;2023-05-23T09:31:01;17.10;;;15.30;;
3333;SDS011;1679;50.392;8.008;2023-05-23T09:33:28;18.20;;;16.40;;
3333;SDS011;1679;50.392;8.008;2023-05-23T09:36:13;19.47;;;16.03;;
3333;SDS011;1679;50.392;8.008;2023-05-23T09:38:39;18.60;;;14.70;;
3333;SDS011;1679;50.392;8.008;2023-05-23T09:41:06;17.87;;;15.97;;
3333;SDS011;1679;50.392;8.008;2023-05-23T09:43:36;17.20;;;15.57;;
3333;SDS011;1679;50.392;8.008;2023-05-23T09:46:09;13.63;;;12.33;;
3333;SDS011;1679;50.392;8.008;2023-05-23T09:48:35;10.57;;;9.73;;
3333;SDS011;1679;50.392;8.008;2023-05-23T09:51:04;9.40;;;8.60;;
3333;SDS011;1679;50.392;8.008;2023-05-23T09:53:30;9.27;;;8.30;;
3333;SDS011;1679;50.392;8.008;2023-05-23T09:55:57;9.47;;;8.47;;
3333;SDS011;1679;50.392;8.008;2023-05-23T09:58:23;7.50;;;6.90;;
3333;SDS011;1679;50.392;8.008;2023-05-23T10:00:50;8.70;;;7.80;;
3333;SDS011;1679;50.392;8.008;2023-05-23T10:03:18;6.73;;;6.23;;
3333;SDS011;1679;50.392;8.008;2023-05-23T10:05:49;6.80;;;6.30;;
3333;SDS011;1679;50.392;8.008;2023-05-23T10:08:31;6.70;;;6.07;;
3333;SDS011;1679;50.392;8.008;2023-05-23T10:11:25;7.80;;;7.20;;
3333;SDS011;1679;50.392;8.008;2023-05-23T10:13:58;7.30;;;6.70;;
3333;SDS011;1679;50.392;8.008;2023-05-23T10:16:27;6.90;;;6.30;;
3333;SDS011;1679;50.392;8.008;2023-05-23T10:19:02;7.70;;;7.03;;
3333;SDS011;1679;50.392;8.008;2023-05-23T10:21:39;7.67;;;6.90;;
3333;SDS011;1679;50.392;8.008;2023-05-23T10:24:13;7.70;;;7.00;;
3333;SDS011;1679;50.392;8.008;2023-05-23T10:26:40;8.70;;;8.00;;
3333;SDS011;1679;50.392;8.008;2023-05-23T10:29:08;8.93;;;8.03;;
3333;SDS011;1679;50.392;8.008;2023-05-23T10:31:35;11.10;;;10.10;;
3333;SDS011;1679;50.392;8.008;2023-05-23T10:34:07;9.90;;;8.97;;
3333;SDS011;1679;50.392;8.008;2023-05-23T10:36:52;11.50;;;10.30;;
3333;SDS011;1679;50.392;8.008;2023-05-23T10:42:21;10.73;;;9.73;;
3333;SDS011;1679;50.392;8.008;2023-05-23T10:45:13;10.57;;;9.67;;
3333;SDS011;1679;50.392;8.008;2023-05-23T10:47:42;10.40;;;8.97;;
3333;SDS011;1679;50.392;8.008;2023-05-23T10:50:11;10.20;;;8.57;;
3333;SDS011;1679;50.392;8.008;2023-05-23T10:52:39;10.10;;;9.10;;
3333;SDS011;1679;50.392;8.008;2023-05-23T10:55:13;10.40;;;9.40;;
3333;SDS011;1679;50.392;8.008;2023-05-23T10:57:41;10.00;;;9.10;;
3333;SDS011;1679;50.392;8.008;2023-05-23T11:00:11;10.57;;;9.20;;
3333;SDS011;1679;50.392;8.008;2023-05-23T11:02:53;9.87;;;8.87;;
3333;SDS011;1679;50.392;8.008;2023-05-23T11:05:23;8.80;;;8.00;;
3333;SDS011;1679;50.392;8.008;2023-05-23T11:08:11;11.97;;;9.53;;
3333;SDS011;1679;50.392;8.008;2023-05-23T11:13:17;9.77;;;8.97;;
3333;SDS011;1679;50.392;8.008;2023-05-23T11:15:44;10.90;;;8.57;;
3333;SDS011;1679;50.392;8.008;2023-05-23T11:18:10;10.97;;;8.93;;
3333;SDS011;1679;50.392;8.008;2023-05-23T11:20:48;9.17;;;8.33;;
3333;SDS011;1679;50.392;8.008;2023-05-23T11:23:16;9.33;;;7.70;;
3333;SDS011;1679;50.392;8.008;2023-05-23T11:25:43;8.67;;;7.97;;
3333;SDS011;1679;50.392;8.008;2023-05-23T11:28:15;9.13;;;7.97;;
3333;SDS011;1679;50.392;8.008;2023-05-23T11:30:41;9.10;;;8.20;;
3333;SDS011;1679;50.392;8.008;2023-05-23T11:33:11;7.70;;;6.97;;
3333;SDS011;1679;50.392;8.008;2023-05-23T11:35:41;8.20;;;7.50;;
3333;SDS011;1679;50.392;8.008;2023-05-23T11:38:08;9.20;;;8.30;;
3333;SDS011;1679;50.392;8.008;2023-05-23T11:40:35;8.90;;;8.10;;
3333;SDS011;1679;50.392;8.008;2023-05-23T11:43:06;8.63;;;7.90;;
3333;SDS011;1679;50.392;8.008;2023-05-23T11:45:34;9.30;;;8.40;;
3333;SDS011;1679;50.392;8.008;2023-05-23T11:50:49;12.47;;;9.53;;
3333;SDS011;1679;50.392;8.008;2023-05-23T11:53:16;9.53;;;8.67;;
3333;SDS011;1679;50.392;8.008;2023-05-23T11:55:48;11.57;;;9.67;;
3333;SDS011;1679;50.392;8.008;2023-05-23T11:58:19;13.70;;;9.50;;
3333;SDS011;1679;50.392;8.008;2023-05-23T12:01:09;13.90;;;10.97;;
3333;SDS011;1679;50.392;8.008;2023-05-23T12:03:49;10.17;;;9.10;;
3333;SDS011;1679;50.392;8.008;2023-05-23T12:06:16;11.37;;;10.00;;
3333;SDS011;1679;50.392;8.008;2023-05-23T12:08:43;14.23;;;10.80;;
3333;SDS011;1679;50.392;8.008;2023-05-23T12:11:08;10.43;;;8.90;;
3333;SDS011;1679;50.392;8.008;2023-05-23T12:13:35;9.50;;;8.70;;
3333;SDS011;1679;50.392;8.008;2023-05-23T12:16:01;12.67;;;9.77;;
3333;SDS011;1679;50.392;8.008;2023-05-23T12:18:31;10.30;;;9.10;;
3333;SDS011;1679;50.392;8.008;2023-05-23T12:21:01;10.17;;;9.17;;
3333;SDS011;1679;50.392;8.008;2023-05-23T12:23:27;10.13;;;9.00;;
3333;SDS011;1679;50.392;8.008;2023-05-23T12:25:54;10.33;;;9.20;;
3333;SDS011;1679;50.392;8.008;2023-05-23T12:28:21;12.53;;;9.77;;
3333;SDS011;1679;50.392;8.008;2023-05-23T12:31:09;10.27;;;8.67;;
3333;SDS011;1679;50.392;8.008;2023-05-23T12:33:39;10.17;;;9.17;;
3333;SDS011;1679;50.392;8.008;2023-05-23T12:36:09;11.20;;;9.20;;
3333;SDS011;1679;50.392;8.008;2023-05-23T12:38:38;19.90;;;11.87;;
3333;SDS011;1679;50.392;8.008;2023-05-23T12:41:37;12.90;;;11.70;;
3333;SDS011;1679;50.392;8.008;2023-05-23T12:43:57;13.30;;;11.90;;
3333;SDS011;1679;50.392;8.008;2023-05-23T12:46:23;11.80;;;10.70;;
3333;SDS011;1679;50.392;8.008;2023-05-23T12:48:50;14.77;;;11.70;;
3333;SDS011;1679;50.392;8.008;2023-05-23T12:51:16;13.93;;;11.67;;
3333;SDS011;1679;50.392;8.008;2023-05-23T12:53:42;18.37;;;11.27;;
3333;SDS011;1679;50.392;8.008;2023-05-23T12:56:08;13.03;;;11.20;;
3333;SDS011;1679;50.392;8.008;2023-05-23T12:58:34;14.73;;;11.37;;
3333;SDS011;1679;50.392;8.008;2023-05-23T13:01:00;11.70;;;10.47;;
3333;SDS011;1679;50.392;8.008;2023-05-23T13:03:26;12.00;;;10.80;;
3333;SDS011;1679;50.392;8.008;2023-05-23T13:05:53;15.30;;;12.13;;
3333;SDS011;1679;50.392;8.008;2023-05-23T13:08:19;15.67;;;12.40;;
3333;SDS011;1679;50.392;8.008;2023-05-23T13:10:45;18.17;;;11.80;;
3333;SDS011;1679;50.392;8.008;2023-05-23T13:13:10;14.33;;;11.90;;
3333;SDS011;1679;50.392;8.008;2023-05-23T13:15:36;13.77;;;11.83;;
3333;SDS011;1679;50.392;8.008;2023-05-23T13:18:01;12.13;;;10.73;;
3333;SDS011;1679;50.392;8.008;2023-05-23T13:20:27;14.43;;;11.10;;
3333;SDS011;1679;50.392;8.008;2023-05-23T13:22:55;17.70;;;13.80;;
3333;SDS011;1679;50.392;8.008;2023-05-23T13:25:21;21.77;;;15.13;;
3333;SDS011;1679;50.392;8.008;2023-05-23T13:27:46;15.30;;;13.50;;
3333;SDS011;1679;50.392;8.008;2023-05-23T13:30:13;16.80;;;12.97;;
3333;SDS011;1679;50.392;8.008;2023-05-23T13:32:39;15.67;;;12.33;;
3333;SDS011;1679;50.392;8.008;2023-05-23T13:35:05;17.23;;;12.37;;
3333;SDS011;1679;50.392;8.008;2023-05-23T13:37:30;13.87;;;11.70;;
3333;SDS011;1679;50.392;8.008;2023-05-23T13:39:56;13.10;;;11.80;;
3333;SDS011;1679;50.392;8.008;2023-05-23T13:42:22;12.43;;;11.23;;
3333;SDS011;1679;50.392;8.008;2023-05-23T13:44:47;11.93;;;10.83;;
3333;SDS011;1679;50.392;8.008;2023-05-23T13:47:13;13.47;;;11.27;;
3333;SDS011;1679;50.392;8.008;2023-05-23T13:49:39;13.30;;;11.03;;
3333;SDS011;1679;50.392;8.008;2023-05-23T13:52:05;12.53;;;10.10;;
3333;SDS011;1679;50.392;8.008;2023-05-23T13:54:31;11.00;;;9.67;;
3333;SDS011;1679;50.392;8.008;2023-05-23T13:56:57;10.07;;;9.17;;
3333;SDS011;1679;50.392;8.008;2023-05-23T13:59:24;11.77;;;10.50;;
3333;SDS011;1679;50.392;8.008;2023-05-23T14:01:50;9.60;;;8.73;;
3333;SDS011;1679;50.392;8.008;2023-05-23T14:04:16;8.73;;;7.53;;
3333;SDS011;1679;50.392;8.008;2023-05-23T14:06:42;11.53;;;10.33;;
3333;SDS011;1679;50.392;8.008;2023-05-23T14:09:08;9.40;;;8.50;;
3333;SDS011;1679;50.392;8.008;2023-05-23T14:11:33;10.07;;;8.80;;
3333;SDS011;1679;50.392;8.008;2023-05-23T14:13:59;8.40;;;7.60;;
3333;SDS011;1679;50.392;8.008;2023-05-23T14:16:26;10.57;;;8.13;;
3333;SDS011;1679;50.392;8.008;2023-05-23T14:18:51;9.50;;;7.80;;
3333;SDS011;1679;50.392;8.008;2023-05-23T14:21:17;8.47;;;7.67;;
3333;SDS011;1679;50.392;8.008;2023-05-23T14:23:43;11.93;;;8.40;;
3333;SDS011;1679;50.392;8.008;2023-05-23T14:26:09;10.03;;;9.03;;
3333;SDS011;1679;50.392;8.008;2023-05-23T14:28:35;11.90;;;9.53;;
3333;SDS011;1679;50.392;8.008;2023-05-23T14:31:05;9.00;;;8.10;;
3333;SDS011;1679;50.392;8.008;2023-05-23T14:33:31;8.90;;;7.80;;
3333;SDS011;1679;50.392;8.008;2023-05-23T14:35:56;8.80;;;7.90;;
3333;SDS011;1679;50.392;8.008;2023-05-23T14:38:22;9.43;;;7.00;;
3333;SDS011;1679;50.392;8.008;2023-05-23T14:40:48;8.87;;;7.97;;
3333;SDS011;1679;50.392;8.008;2023-05-23T14:43:14;7.67;;;6.97;;
3333;SDS011;1679;50.392;8.008;2023-05-23T14:45:39;8.13;;;7.33;;
3333;SDS011;1679;50.392;8.008;2023-05-23T14:48:06;13.53;;;7.43;;
3333;SDS011;1679;50.392;8.008;2023-05-23T14:50:31;8.47;;;7.23;;
3333;SDS011;1679;50.392;8.008;2023-05-23T14:52:57;9.47;;;7.53;;
3333;SDS011;1679;50.392;8.008;2023-05-23T14:55:23;10.00;;;7.40;;
3333;SDS011;1679;50.392;8.008;2023-05-23T14:57:49;11.03;;;7.23;;
3333;SDS011;1679;50.392;8.008;2023-05-23T15:00:15;10.73;;;8.00;;
3333;SDS011;1679;50.392;8.008;2023-05-23T15:02:41;16.70;;;7.60;;
3333;SDS011;1679;50.392;8.008;2023-05-23T15:05:07;11.93;;;7.30;;
3333;SDS011;1679;50.392;8.008;2023-05-23T15:07:32;11.23;;;7.33;;
3333;SDS011;1679;50.392;8.008;2023-05-23T15:09:58;9.73;;;7.33;;